Time;durP1;ratioP1;P1;durP2;ratioP2;P2;SDS_P1;SDS_P2;PMS_P1;PMS_P2;Temp;Humidity;BMP_temperature;BMP_pressure;BME280_temperature;BME280_humidity;BME280_pressure;Samples;Min_cycle;Max_cycle;Signal;HPM_P1;HPM_P2
2023/04/05 00:00:29;;;;;;;13.37;8.47;;;3.00;99.90;;;;;;5043039;28;20324;-78
2023/04/05 00:02:58;;;;;;;13.93;8.67;;;3.00;99.90;;;;;;5043538;28;20313;-79
2023/04/05 00:05:30;;;;;;;16.63;9.17;;;2.90;99.90;;;;;;5032766;28;20211;-79
2023/04/05 00:07:59;;;;;;;15.27;9.33;;;2.90;99.90;;;;;;5024360;28;20799;-80
2023/04/05 00:10:28;;;;;;;18.47;9.20;;;2.90;99.90;;;;;;5047242;28;20492;-80
2023/04/05 00:12:55;;;;;;;22.87;10.13;;;2.80;99.90;;;;;;5043395;28;20205;-79
2023/04/05 00:15:22;;;;;;;18.80;9.33;;;2.80;99.90;;;;;;5040441;28;20244;-79
2023/04/05 00:17:49;;;;;;;16.47;9.30;;;2.70;99.90;;;;;;5041949;28;20324;-79
2023/04/05 00:20:16;;;;;;;20.03;9.43;;;2.90;99.90;;;;;;5046627;28;20230;-79
2023/04/05 00:22:43;;;;;;;17.67;9.53;;;2.70;99.90;;;;;;5040123;28;20209;-78
2023/04/05 00:25:10;;;;;;;21.07;10.17;;;2.60;99.90;;;;;;5040924;28;20213;-78
2023/04/05 00:27:38;;;;;;;21.10;10.23;;;1.90;99.90;;;;;;5024676;28;20628;-77
2023/04/05 00:30:05;;;;;;;23.20;9.87;;;2.50;99.90;;;;;;5036603;28;20205;-77
2023/04/05 00:32:32;;;;;;;25.30;11.17;;;2.50;99.90;;;;;;5042590;28;20272;-78
2023/04/05 00:34:59;;;;;;;21.77;10.83;;;2.40;99.90;;;;;;5023826;28;20210;-78
2023/04/05 00:37:26;;;;;;;18.60;10.10;;;2.40;99.90;;;;;;5042387;28;20201;-79
2023/04/05 00:39:53;;;;;;;21.73;10.37;;;2.30;99.90;;;;;;5043620;28;20782;-78
2023/04/05 00:42:19;;;;;;;22.27;11.33;;;2.30;99.90;;;;;;5043948;28;20300;-78
2023/04/05 00:44:46;;;;;;;21.83;10.50;;;2.30;99.90;;;;;;5040934;28;20212;-80
2023/04/05 00:47:13;;;;;;;21.40;9.80;;;2.20;99.90;;;;;;5039259;28;20285;-79
2023/04/05 00:49:41;;;;;;;20.00;11.23;;;2.30;99.90;;;;;;5040181;28;20268;-79
2023/04/05 00:52:08;;;;;;;18.80;10.30;;;2.20;99.90;;;;;;5031358;28;20347;-78
2023/04/05 00:54:35;;;;;;;19.73;10.53;;;2.20;99.90;;;;;;5031236;28;20297;-79
2023/04/05 00:57:04;;;;;;;22.03;10.70;;;2.20;99.90;;;;;;5041055;28;20232;-80
2023/04/05 00:59:31;;;;;;;20.13;10.93;;;2.10;99.90;;;;;;5041562;28;20205;-80
2023/04/05 01:02:30;;;;;;;22.67;10.73;;;2.10;99.90;;;;;;5042257;28;20298;-79
2023/04/05 01:05:02;;;;;;;22.90;10.47;;;2.10;99.90;;;;;;5010727;28;20270;-79
2023/04/05 01:07:47;;;;;;;20.83;9.87;;;2.00;99.90;;;;;;5044960;28;20201;-79
2023/04/05 01:10:16;;;;;;;18.30;9.90;;;2.00;99.90;;;;;;5045772;28;20297;-80
2023/04/05 01:12:45;;;;;;;18.33;9.73;;;2.00;99.90;;;;;;5039219;28;20229;-78
2023/04/05 01:15:13;;;;;;;13.50;9.10;;;2.00;99.90;;;;;;5044378;28;20216;-79
2023/04/05 01:17:41;;;;;;;16.00;9.20;;;2.00;99.90;;;;;;5041553;28;20277;-77
2023/04/05 01:20:10;;;;;;;19.23;10.60;;;1.90;99.90;;;;;;5045695;28;20229;-79
2023/04/05 01:22:56;;;;;;;16.33;9.53;;;1.90;99.90;;;;;;5039952;28;20271;-79
2023/04/05 01:25:53;;;;;;;13.87;9.43;;;1.80;99.90;;;;;;5020555;28;20248;-79
2023/04/05 01:29:04;;;;;;;18.60;10.70;;;1.80;99.90;;;;;;5041454;28;20197;-79
2023/04/05 01:31:50;;;;;;;18.23;10.07;;;1.80;99.90;;;;;;5042642;28;20353;-80
2023/04/05 01:34:32;;;;;;;18.80;10.17;;;1.70;99.90;;;;;;5041899;28;20304;-78
2023/04/05 01:37:07;;;;;;;19.20;9.53;;;1.50;99.90;;;;;;5040872;28;20209;-79
2023/04/05 01:39:35;;;;;;;19.57;9.93;;;1.60;99.90;;;;;;5023490;28;20295;-79
2023/04/05 01:42:06;;;;;;;15.77;8.77;;;1.60;99.90;;;;;;5038538;28;20356;-79
2023/04/05 01:44:33;;;;;;;15.97;10.20;;;1.50;99.90;;;;;;5040066;28;20215;-79
2023/04/05 01:47:00;;;;;;;16.90;8.83;;;1.40;99.90;;;;;;5044354;28;20637;-79
2023/04/05 01:49:27;;;;;;;19.63;9.67;;;1.20;99.90;;;;;;5041172;28;20625;-77
2023/04/05 01:51:53;;;;;;;15.33;9.20;;;1.40;99.90;;;;;;5038860;28;20208;-80
2023/04/05 01:54:20;;;;;;;15.40;9.07;;;1.40;99.90;;;;;;5023145;28;20204;-79
2023/04/05 01:56:47;;;;;;;16.37;9.20;;;1.40;99.90;;;;;;5022112;28;20282;-79
2023/04/05 01:59:15;;;;;;;13.93;8.27;;;1.30;99.90;;;;;;5042556;28;20309;-79
2023/04/05 02:01:42;;;;;;;14.40;8.13;;;1.20;99.90;;;;;;5041167;28;20697;-79
2023/04/05 02:04:09;;;;;;;17.13;8.77;;;1.40;99.90;;;;;;5041800;28;20225;-81
2023/04/05 02:06:35;;;;;;;17.03;9.30;;;1.40;99.90;;;;;;5048278;28;20230;-78
2023/04/05 02:09:02;;;;;;;16.03;8.17;;;1.20;99.90;;;;;;5041833;28;20211;-78
2023/04/05 02:11:29;;;;;;;17.30;8.53;;;1.20;99.90;;;;;;5038591;28;20268;-79
2023/04/05 02:13:56;;;;;;;18.37;9.87;;;1.20;99.90;;;;;;5038908;28;20252;-79
2023/04/05 02:16:25;;;;;;;18.23;8.80;;;1.20;99.90;;;;;;5037917;28;20203;-78
2023/04/05 02:18:56;;;;;;;20.00;9.00;;;1.10;99.90;;;;;;5039931;28;20258;-78
2023/04/05 02:21:24;;;;;;;12.67;8.30;;;1.10;99.90;;;;;;5043303;28;20224;-78
2023/04/05 02:23:53;;;;;;;18.77;9.17;;;1.10;99.90;;;;;;5040391;28;20202;-79
2023/04/05 02:26:20;;;;;;;14.50;8.90;;;1.10;99.90;;;;;;5029104;28;20203;-78
2023/04/05 02:28:47;;;;;;;16.23;9.77;;;1.10;99.90;;;;;;5041823;28;20202;-80
2023/04/05 02:31:14;;;;;;;16.97;9.70;;;1.10;99.90;;;;;;5044558;28;20301;-79
2023/04/05 02:33:41;;;;;;;21.23;9.67;;;1.10;99.90;;;;;;5038818;28;20231;-78
2023/04/05 02:36:10;;;;;;;17.77;9.40;;;1.00;99.90;;;;;;5044336;28;20200;-77
2023/04/05 02:38:37;;;;;;;17.63;10.07;;;1.00;99.90;;;;;;5042346;28;20196;-78
2023/04/05 02:41:08;;;;;;;18.10;8.93;;;1.00;99.90;;;;;;5037562;28;20230;-77
2023/04/05 02:43:35;;;;;;;16.07;9.50;;;1.00;99.90;;;;;;5038275;28;20241;-77
2023/04/05 02:46:02;;;;;;;14.87;9.23;;;1.00;99.90;;;;;;5045355;28;20226;-79
2023/04/05 02:48:29;;;;;;;17.37;9.37;;;1.00;99.90;;;;;;5037922;28;20253;-79
2023/04/05 02:50:56;;;;;;;17.97;9.70;;;1.00;99.90;;;;;;5040327;28;20195;-78
2023/04/05 02:53:23;;;;;;;17.20;9.57;;;0.90;99.90;;;;;;5039820;28;20196;-79
2023/04/05 02:55:54;;;;;;;17.27;9.37;;;0.90;99.90;;;;;;5039979;28;20250;-79
2023/04/05 02:58:22;;;;;;;17.23;8.93;;;0.90;99.90;;;;;;5036614;28;20677;-79
2023/04/05 03:00:51;;;;;;;16.27;9.17;;;0.90;99.90;;;;;;5039787;28;20330;-81
2023/04/05 03:03:19;;;;;;;20.27;10.40;;;0.80;99.90;;;;;;5037050;28;20634;-78
2023/04/05 03:05:48;;;;;;;17.43;9.77;;;0.80;99.90;;;;;;5045805;28;20286;-79
2023/04/05 03:08:18;;;;;;;20.13;9.73;;;0.80;99.90;;;;;;5029400;28;20301;-79
2023/04/05 03:10:46;;;;;;;19.13;10.23;;;0.70;99.90;;;;;;5041277;28;20226;-78
2023/04/05 03:13:14;;;;;;;18.23;9.80;;;0.90;99.90;;;;;;5039938;28;20667;-79
2023/04/05 03:15:41;;;;;;;21.90;10.83;;;0.70;99.90;;;;;;5042006;28;20270;-78
2023/04/05 03:18:09;;;;;;;17.63;9.40;;;0.70;99.90;;;;;;5038867;28;20332;-78
2023/04/05 03:20:40;;;;;;;22.60;10.20;;;0.70;99.90;;;;;;5044702;28;20227;-78
2023/04/05 03:23:07;;;;;;;17.17;9.87;;;0.70;99.90;;;;;;5043063;28;20243;-78
2023/04/05 03:25:40;;;;;;;18.03;9.90;;;0.70;99.90;;;;;;5042179;28;21399;-78
2023/04/05 03:28:07;;;;;;;17.07;10.40;;;0.60;99.90;;;;;;5027243;28;20210;-78
2023/04/05 03:30:36;;;;;;;19.43;9.90;;;0.60;99.90;;;;;;5044629;28;20252;-78
2023/04/05 03:33:03;;;;;;;19.43;10.37;;;0.60;99.90;;;;;;5043327;28;20224;-79
2023/04/05 03:35:30;;;;;;;19.97;10.33;;;0.60;99.90;;;;;;5042459;28;20204;-80
2023/04/05 03:37:56;;;;;;;17.03;9.87;;;0.50;99.90;;;;;;5048974;28;20204;-78
2023/04/05 03:40:23;;;;;;;20.67;9.77;;;0.50;99.90;;;;;;5044543;28;20296;-78
2023/04/05 03:42:50;;;;;;;19.60;9.90;;;0.50;99.90;;;;;;5044541;28;20199;-79
2023/04/05 03:45:18;;;;;;;19.63;9.70;;;0.50;99.90;;;;;;5042592;28;20201;-79
2023/04/05 03:47:49;;;;;;;16.90;9.93;;;0.40;99.90;;;;;;5043807;28;20620;-77
2023/04/05 03:50:16;;;;;;;23.37;11.27;;;0.40;99.90;;;;;;5041696;28;20240;-78
2023/04/05 03:52:45;;;;;;;19.87;10.37;;;0.40;99.90;;;;;;5044082;28;20210;-77
2023/04/05 03:55:12;;;;;;;18.90;10.67;;;0.40;99.90;;;;;;5043752;28;20251;-78
2023/04/05 03:57:41;;;;;;;20.80;9.93;;;0.40;99.90;;;;;;5039709;28;20209;-79
2023/04/05 04:00:17;;;;;;;19.03;10.10;;;0.30;99.90;;;;;;5041716;28;20208;-78
2023/04/05 04:02:46;;;;;;;17.83;9.77;;;0.30;99.90;;;;;;5043814;28;20315;-79
2023/04/05 04:05:14;;;;;;;21.17;10.57;;;0.30;99.90;;;;;;5044057;28;20331;-79
2023/04/05 04:07:42;;;;;;;18.60;10.60;;;0.30;99.90;;;;;;5045287;28;20209;-77
2023/04/05 04:10:11;;;;;;;19.03;11.23;;;0.30;99.90;;;;;;5052421;28;20296;-77
2023/04/05 04:12:38;;;;;;;20.03;9.90;;;0.30;99.90;;;;;;5043640;28;20324;-78
2023/04/05 04:15:05;;;;;;;19.93;10.30;;;0.20;99.90;;;;;;5027902;28;20238;-78
2023/04/05 04:17:35;;;;;;;20.60;10.63;;;0.20;99.90;;;;;;5042084;28;20215;-78
2023/04/05 04:20:13;;;;;;;16.97;10.20;;;0.20;99.90;;;;;;5047317;28;20229;-78
2023/04/05 04:22:42;;;;;;;23.60;13.53;;;0.20;99.90;;;;;;5044617;28;20228;-78
2023/04/05 04:25:11;;;;;;;22.07;11.07;;;0.20;99.90;;;;;;5025102;28;20267;-76
2023/04/05 04:27:41;;;;;;;17.77;10.17;;;0.20;99.90;;;;;;5039454;28;20682;-76
2023/04/05 04:30:10;;;;;;;18.70;10.43;;;0.20;99.90;;;;;;5043431;28;20198;-79
2023/04/05 04:32:50;;;;;;;18.83;9.50;;;0.20;99.90;;;;;;5046745;28;20213;-77
2023/04/05 04:35:26;;;;;;;18.27;10.17;;;0.20;99.90;;;;;;5039181;28;20202;-78
2023/04/05 04:38:04;;;;;;;21.53;11.00;;;0.10;99.90;;;;;;5041291;28;20725;-79
2023/04/05 04:40:38;;;;;;;24.50;11.63;;;0.10;99.90;;;;;;5040370;28;20766;-78
2023/04/05 04:43:08;;;;;;;22.83;12.83;;;0.20;99.90;;;;;;5040189;28;20285;-77
2023/04/05 04:45:36;;;;;;;23.77;12.50;;;0.00;99.90;;;;;;5046552;28;20237;-77
2023/04/05 04:48:03;;;;;;;22.43;11.77;;;0.00;99.90;;;;;;5043581;28;20757;-78
2023/04/05 04:50:31;;;;;;;21.17;13.03;;;0.00;99.90;;;;;;5039622;28;20284;-77
2023/04/05 04:52:59;;;;;;;22.57;13.30;;;0.00;99.90;;;;;;5042085;28;20292;-78
2023/04/05 04:55:26;;;;;;;22.73;12.40;;;0.00;99.90;;;;;;5044211;28;20201;-78
2023/04/05 04:57:54;;;;;;;24.47;13.17;;;0.00;99.90;;;;;;5044046;28;20267;-78
2023/04/05 05:00:22;;;;;;;25.53;13.50;;;-0.10;99.90;;;;;;5037980;28;20209;-78
2023/04/05 05:02:51;;;;;;;20.97;12.40;;;0.00;99.90;;;;;;5042901;28;20585;-77
2023/04/05 05:05:21;;;;;;;22.23;13.33;;;0.00;99.90;;;;;;5044779;28;20207;-79
2023/04/05 05:07:48;;;;;;;20.50;11.63;;;-0.10;99.90;;;;;;5049926;28;20288;-78
2023/04/05 05:10:15;;;;;;;26.20;13.00;;;-0.10;99.90;;;;;;5043005;28;20791;-77
2023/04/05 05:12:42;;;;;;;23.17;12.10;;;-0.10;99.90;;;;;;5041745;28;20205;-78
2023/04/05 05:15:10;;;;;;;20.17;13.23;;;-0.10;99.90;;;;;;5042994;28;20613;-78
2023/04/05 05:17:38;;;;;;;23.40;12.57;;;0.00;99.90;;;;;;5040700;28;20308;-78
2023/04/05 05:20:09;;;;;;;30.67;14.17;;;-0.10;99.90;;;;;;5043216;28;20271;-78
2023/04/05 05:22:37;;;;;;;25.80;12.43;;;-0.10;99.90;;;;;;5040347;28;20754;-78
2023/04/05 05:25:06;;;;;;;24.30;12.53;;;0.00;99.90;;;;;;5044233;28;20323;-79
2023/04/05 05:27:32;;;;;;;20.33;12.00;;;0.00;99.90;;;;;;5044839;28;20205;-77
2023/04/05 05:30:00;;;;;;;25.60;12.23;;;0.00;99.90;;;;;;5046732;28;20228;-77
2023/04/05 05:32:26;;;;;;;22.57;13.13;;;0.00;99.90;;;;;;5045883;28;20215;-78
2023/04/05 05:34:54;;;;;;;24.60;12.93;;;0.00;99.90;;;;;;5043378;28;20281;-78
2023/04/05 05:37:39;;;;;;;23.93;12.87;;;0.10;99.90;;;;;;5043370;28;20283;-77
2023/04/05 05:40:06;;;;;;;25.03;13.00;;;0.10;99.90;;;;;;5043024;28;20256;-77
2023/04/05 05:42:33;;;;;;;30.10;13.07;;;0.20;99.90;;;;;;5041290;28;20253;-76
2023/04/05 05:45:03;;;;;;;23.20;12.50;;;0.20;99.90;;;;;;5040134;28;20761;-79
2023/04/05 05:47:31;;;;;;;23.27;13.33;;;0.20;99.90;;;;;;5024914;28;20292;-79
2023/04/05 05:49:57;;;;;;;26.73;14.23;;;0.30;99.90;;;;;;5041734;28;20302;-79
2023/04/05 05:52:24;;;;;;;23.97;14.40;;;0.30;99.90;;;;;;5040777;28;20283;-77
2023/04/05 05:54:51;;;;;;;24.83;13.17;;;0.40;99.90;;;;;;5042719;28;20207;-79
2023/04/05 05:57:18;;;;;;;27.80;14.03;;;0.40;99.90;;;;;;5041475;28;20685;-77
2023/04/05 05:59:45;;;;;;;24.70;12.97;;;0.40;99.90;;;;;;5040046;28;20336;-81
2023/04/05 06:02:12;;;;;;;23.90;13.67;;;0.50;99.90;;;;;;5040783;28;20812;-79
2023/04/05 06:04:39;;;;;;;23.17;12.40;;;0.50;99.90;;;;;;5044252;28;20208;-79
2023/04/05 06:07:06;;;;;;;23.53;13.10;;;0.60;99.90;;;;;;5045057;28;20207;-77
2023/04/05 06:09:34;;;;;;;27.40;13.17;;;0.70;99.90;;;;;;5030858;28;20292;-77
2023/04/05 06:12:01;;;;;;;26.57;13.43;;;0.80;99.90;;;;;;5040192;28;20239;-77
2023/04/05 06:14:31;;;;;;;22.80;13.23;;;0.80;99.90;;;;;;5041682;28;20204;-79
2023/04/05 06:16:57;;;;;;;23.23;13.33;;;0.90;99.90;;;;;;5038269;28;20265;-78
2023/04/05 06:19:25;;;;;;;22.37;12.73;;;1.00;99.90;;;;;;5042014;28;20257;-78
2023/04/05 06:21:51;;;;;;;24.90;13.13;;;1.00;99.90;;;;;;5042382;28;20225;-78
2023/04/05 06:24:19;;;;;;;25.13;13.00;;;1.10;99.90;;;;;;5043954;28;20207;-81
2023/04/05 06:26:48;;;;;;;23.00;13.27;;;1.10;99.90;;;;;;5037975;28;20212;-79
2023/04/05 06:29:15;;;;;;;23.23;13.43;;;1.20;99.90;;;;;;5041605;28;20687;-79
2023/04/05 06:31:42;;;;;;;25.73;13.77;;;1.20;99.90;;;;;;5042006;28;20216;-79
2023/04/05 06:34:09;;;;;;;21.90;12.80;;;1.30;99.90;;;;;;5041889;28;20277;-79
2023/04/05 06:36:36;;;;;;;22.53;13.07;;;1.40;99.90;;;;;;5040798;28;20635;-81
2023/04/05 06:39:03;;;;;;;20.77;13.30;;;1.50;99.90;;;;;;5045356;28;20262;-81
2023/04/05 06:41:30;;;;;;;20.80;13.93;;;1.50;99.90;;;;;;5039999;28;20660;-80
2023/04/05 06:43:56;;;;;;;28.33;14.10;;;1.60;99.90;;;;;;5042591;28;20305;-77
2023/04/05 06:46:23;;;;;;;24.37;13.70;;;1.70;99.90;;;;;;5037849;28;20213;-77
2023/04/05 06:48:51;;;;;;;21.67;13.00;;;1.80;99.90;;;;;;5041893;28;20224;-79
2023/04/05 06:51:18;;;;;;;23.17;13.27;;;1.80;99.90;;;;;;5043967;28;20207;-79
2023/04/05 06:53:45;;;;;;;25.37;13.57;;;2.00;99.90;;;;;;5042756;28;20251;-79
2023/04/05 06:56:12;;;;;;;21.07;14.83;;;2.10;99.90;;;;;;5043734;28;20283;-80
2023/04/05 06:58:39;;;;;;;23.23;15.20;;;2.30;99.90;;;;;;5041998;28;20194;-82
2023/04/05 07:01:06;;;;;;;28.40;13.30;;;3.00;99.90;;;;;;5040888;28;20199;-82
2023/04/05 07:03:33;;;;;;;14.93;11.13;;;4.30;99.90;;;;;;5044307;28;20229;-81
2023/04/05 07:06:00;;;;;;;16.80;10.07;;;6.40;99.90;;;;;;5048049;28;20186;-80
2023/04/05 07:08:30;;;;;;;16.60;9.37;;;6.90;99.90;;;;;;5046754;28;20209;-80
2023/04/05 07:10:57;;;;;;;13.73;10.03;;;8.20;99.90;;;;;;5049120;28;20247;-80
2023/04/05 07:13:24;;;;;;;12.63;8.97;;;10.30;99.90;;;;;;5024330;28;20221;-78
2023/04/05 07:15:58;;;;;;;16.03;9.50;;;10.30;99.90;;;;;;5031629;28;20607;-79
2023/04/05 07:18:25;;;;;;;14.93;10.03;;;11.30;99.90;;;;;;5046084;28;20592;-80
2023/04/05 07:20:55;;;;;;;14.70;8.87;;;12.00;99.90;;;;;;5045346;28;20218;-81
2023/04/05 07:23:22;;;;;;;11.37;8.97;;;12.70;99.90;;;;;;5027745;28;20260;-80
2023/04/05 07:25:48;;;;;;;14.70;9.00;;;13.30;99.90;;;;;;5046262;28;20197;-78
2023/04/05 07:28:15;;;;;;;10.73;8.93;;;13.70;99.90;;;;;;5045556;28;20229;-79
2023/04/05 07:30:42;;;;;;;11.25;8.07;;;14.10;99.90;;;;;;5044590;28;20233;-79
2023/04/05 07:33:09;;;;;;;13.63;8.60;;;14.50;99.90;;;;;;5041448;28;20255;-78
2023/04/05 07:35:36;;;;;;;30.75;9.57;;;14.80;99.90;;;;;;5044339;28;20325;-78
2023/04/05 07:38:04;;;;;;;13.20;8.05;;;14.90;99.90;;;;;;5041742;28;20610;-78
2023/04/05 07:40:30;;;;;;;12.80;8.68;;;14.90;99.90;;;;;;5043138;28;20237;-79
2023/04/05 07:42:57;;;;;;;12.38;8.70;;;15.00;99.90;;;;;;5043809;28;20217;-79
2023/04/05 07:45:24;;;;;;;12.90;8.38;;;15.70;99.90;;;;;;5046744;28;20201;-79
2023/04/05 07:47:51;;;;;;;11.82;8.50;;;15.10;99.90;;;;;;5048286;28;20304;-79
2023/04/05 07:50:18;;;;;;;13.48;8.18;;;15.40;99.90;;;;;;5046634;28;20185;-78
2023/04/05 07:52:45;;;;;;;11.82;8.57;;;15.80;99.90;;;;;;5045167;28;20202;-78
2023/04/05 07:55:11;;;;;;;10.95;7.95;;;15.80;99.90;;;;;;5047996;28;20205;-79
2023/04/05 07:57:38;;;;;;;13.98;8.70;;;15.90;99.90;;;;;;5043079;28;20248;-79
2023/04/05 08:00:12;;;;;;;15.88;8.25;;;16.10;99.90;;;;;;5046357;28;20300;-79
2023/04/05 08:02:39;;;;;;;12.45;8.07;;;16.10;99.90;;;;;;5047174;28;20313;-78
2023/04/05 08:05:07;;;;;;;11.15;7.88;;;16.10;99.90;;;;;;5048662;28;20621;-79
2023/04/05 08:07:33;;;;;;;13.52;8.35;;;16.20;99.90;;;;;;5044906;28;20304;-78
2023/04/05 08:10:00;;;;;;;12.05;9.20;;;15.90;99.90;;;;;;5045730;28;20295;-78
2023/04/05 08:12:30;;;;;;;12.30;7.57;;;15.70;99.90;;;;;;5041296;28;20201;-79
2023/04/05 08:14:57;;;;;;;9.02;7.55;;;15.70;99.90;;;;;;5044802;28;20225;-78
2023/04/05 08:17:25;;;;;;;15.13;7.72;;;15.70;99.90;;;;;;5043378;28;20308;-77
2023/04/05 08:19:53;;;;;;;11.38;8.73;;;15.60;99.90;;;;;;5045209;28;20205;-77
2023/04/05 08:22:20;;;;;;;12.85;7.95;;;15.60;99.60;;;;;;5045625;28;20952;-78
2023/04/05 08:24:47;;;;;;;9.15;7.10;;;15.80;98.80;;;;;;5047569;28;20299;-79
2023/04/05 08:27:14;;;;;;;11.35;7.13;;;15.90;97.40;;;;;;5047305;28;20240;-80
2023/04/05 08:29:41;;;;;;;11.52;7.72;;;16.10;97.20;;;;;;5039957;28;20202;-81
2023/04/05 08:32:08;;;;;;;12.35;8.00;;;16.30;97.30;;;;;;5045243;28;20267;-81
2023/04/05 08:34:35;;;;;;;11.50;7.40;;;16.20;97.30;;;;;;5042439;28;20225;-81
2023/04/05 08:37:01;;;;;;;11.75;7.68;;;16.10;97.30;;;;;;5027238;28;20205;-80
2023/04/05 08:39:28;;;;;;;9.85;7.00;;;15.80;97.40;;;;;;5026722;28;20232;-81
2023/04/05 08:42:11;;;;;;;10.55;7.47;;;15.90;97.30;;;;;;5043753;28;20236;-80
2023/04/05 08:44:39;;;;;;;11.05;7.07;;;15.90;97.40;;;;;;5043182;28;20244;-82
2023/04/05 08:47:09;;;;;;;14.50;7.43;;;16.00;97.00;;;;;;5042183;28;20259;-80
2023/04/05 08:49:36;;;;;;;14.93;7.07;;;16.00;97.10;;;;;;5039592;28;20241;-80
2023/04/05 08:52:04;;;;;;;10.35;7.05;;;16.00;96.20;;;;;;5040554;28;20586;-81
2023/04/05 08:54:31;;;;;;;11.68;7.38;;;16.00;95.40;;;;;;5042213;28;20198;-80
2023/04/05 08:57:00;;;;;;;9.32;6.32;;;16.00;96.20;;;;;;5035892;28;20198;-83
2023/04/05 08:59:27;;;;;;;7.60;6.22;;;16.10;96.00;;;;;;5050958;28;20205;-82
2023/04/05 09:01:56;;;;;;;8.00;5.70;;;16.00;94.20;;;;;;5044796;28;20211;-80
2023/04/05 09:04:30;;;;;;;7.25;5.55;;;16.20;94.70;;;;;;5039855;28;20233;-80
2023/04/05 09:06:58;;;;;;;7.60;5.72;;;16.40;92.30;;;;;;5046176;28;20201;-81
2023/04/05 09:09:30;;;;;;;7.38;5.70;;;16.50;91.20;;;;;;5027834;28;20244;-81
2023/04/05 09:11:57;;;;;;;9.02;5.85;;;16.30;90.40;;;;;;5043077;28;20288;-80
2023/04/05 09:14:25;;;;;;;9.18;6.03;;;16.30;90.50;;;;;;5028492;28;20604;-83
2023/04/05 09:16:52;;;;;;;6.47;5.35;;;15.90;89.80;;;;;;5027552;28;20240;-82
2023/04/05 09:19:19;;;;;;;7.47;5.72;;;15.70;88.90;;;;;;5039365;28;20237;-83
2023/04/05 09:22:06;;;;;;;9.57;5.90;;;15.80;88.80;;;;;;5043084;28;20197;-81
2023/04/05 09:24:40;;;;;;;8.75;5.65;;;15.80;88.80;;;;;;5041519;28;20732;-82
2023/04/05 09:27:12;;;;;;;8.80;5.32;;;15.90;88.60;;;;;;5040489;28;20194;-83
2023/04/05 09:29:41;;;;;;;11.75;5.70;;;16.00;87.00;;;;;;5024629;28;20207;-83
2023/04/05 09:32:09;;;;;;;9.85;5.50;;;16.00;87.60;;;;;;5039790;28;20209;-82
2023/04/05 09:34:38;;;;;;;10.85;6.78;;;15.90;86.20;;;;;;5042066;28;20208;-82
2023/04/05 09:37:13;;;;;;;7.10;5.33;;;15.80;85.80;;;;;;5023060;28;20213;-82
2023/04/05 09:39:41;;;;;;;8.20;5.90;;;15.60;83.50;;;;;;5030043;28;20192;-82
2023/04/05 09:42:14;;;;;;;7.60;5.77;;;15.60;83.80;;;;;;5040740;28;20240;-82
2023/04/05 09:44:54;;;;;;;8.13;5.77;;;15.60;85.30;;;;;;5040238;28;20198;-81
2023/04/05 09:47:24;;;;;;;7.15;5.78;;;15.50;84.50;;;;;;5021032;28;20267;-84
2023/04/05 09:49:51;;;;;;;7.97;6.10;;;15.40;85.40;;;;;;5043145;28;20255;-82
2023/04/05 09:52:25;;;;;;;12.53;6.40;;;15.40;85.00;;;;;;5043949;28;20595;-82
2023/04/05 09:54:57;;;;;;;8.53;5.87;;;15.20;84.10;;;;;;5039793;28;20603;-82
2023/04/05 09:57:25;;;;;;;6.70;5.90;;;15.10;83.20;;;;;;5040077;28;20205;-82
2023/04/05 09:59:55;;;;;;;7.37;6.67;;;14.90;83.60;;;;;;5044792;28;20205;-81
2023/04/05 10:02:22;;;;;;;8.07;5.80;;;15.10;83.40;;;;;;5046223;28;20225;-81
2023/04/05 10:04:52;;;;;;;10.40;6.30;;;14.80;83.10;;;;;;5048610;28;20217;-81
2023/04/05 10:07:19;;;;;;;10.07;6.57;;;14.80;83.30;;;;;;5044546;28;20197;-81
2023/04/05 10:09:47;;;;;;;8.17;6.30;;;14.70;83.60;;;;;;5028511;28;20200;-82
2023/04/05 10:12:32;;;;;;;9.60;6.50;;;14.70;86.20;;;;;;5041476;28;20270;-81
2023/04/05 10:14:59;;;;;;;9.10;6.67;;;14.40;85.50;;;;;;5040095;28;20240;-80
2023/04/05 10:17:41;;;;;;;10.33;6.63;;;14.10;86.00;;;;;;5028433;28;20712;-80
2023/04/05 10:20:16;;;;;;;9.27;6.07;;;14.00;84.80;;;;;;5043913;28;20208;-81
2023/04/05 10:22:48;;;;;;;9.67;7.10;;;14.10;84.40;;;;;;5039492;28;20242;-82
2023/04/05 10:25:46;;;;;;;13.03;6.50;;;14.00;84.30;;;;;;5037663;28;20237;-80
2023/04/05 10:28:31;;;;;;;8.00;6.13;;;14.10;83.80;;;;;;5043011;28;20213;-81
2023/04/05 10:31:09;;;;;;;8.30;6.40;;;14.10;84.40;;;;;;5026270;28;20193;-81
2023/04/05 10:33:42;;;;;;;10.93;7.20;;;14.10;83.90;;;;;;5040591;28;20224;-81
2023/04/05 10:36:40;;;;;;;7.00;6.13;;;14.10;85.00;;;;;;5041677;28;20206;-80
2023/04/05 10:39:32;;;;;;;7.43;6.20;;;14.00;83.50;;;;;;5045785;28;20231;-80
2023/04/05 10:42:21;;;;;;;9.87;6.40;;;13.40;83.10;;;;;;5044998;28;20571;-81
2023/04/05 10:44:52;;;;;;;9.20;6.23;;;13.40;85.40;;;;;;5027199;28;20205;-81
2023/04/05 10:47:25;;;;;;;8.13;5.80;;;13.30;84.70;;;;;;5028275;28;20205;-80
2023/04/05 10:49:55;;;;;;;9.53;6.57;;;13.10;83.50;;;;;;5049056;28;20204;-81
2023/04/05 10:52:23;;;;;;;9.83;6.70;;;13.10;85.30;;;;;;5043631;28;20205;-81
2023/04/05 10:54:51;;;;;;;8.97;6.30;;;13.20;86.30;;;;;;5047119;28;20205;-82
2023/04/05 10:57:20;;;;;;;9.40;6.20;;;13.10;86.80;;;;;;5048915;28;20292;-81
2023/04/05 10:59:48;;;;;;;9.73;6.57;;;13.20;86.40;;;;;;5031097;28;20593;-81
2023/04/05 11:02:17;;;;;;;9.03;6.43;;;13.30;85.70;;;;;;5044558;28;20229;-80
2023/04/05 11:04:44;;;;;;;10.67;6.60;;;13.20;85.00;;;;;;5029440;28;20661;-82
2023/04/05 11:07:18;;;;;;;9.33;6.20;;;13.20;85.20;;;;;;5029750;28;20217;-79
2023/04/05 11:10:02;;;;;;;10.83;6.97;;;13.30;85.60;;;;;;5048136;28;20296;-81
2023/04/05 11:13:02;;;;;;;8.83;6.17;;;13.40;86.40;;;;;;5031834;28;20209;-80
2023/04/05 11:15:33;;;;;;;9.63;6.73;;;13.50;85.60;;;;;;5001757;28;20232;-80
2023/04/05 11:18:06;;;;;;;9.47;6.27;;;13.40;85.80;;;;;;5043798;28;20229;-82
2023/04/05 11:20:43;;;;;;;10.50;6.37;;;13.40;85.80;;;;;;5046559;28;20804;-80
2023/04/05 11:23:12;;;;;;;8.93;6.13;;;13.60;85.90;;;;;;5027409;28;20569;-82
2023/04/05 11:25:44;;;;;;;10.57;6.37;;;13.60;86.50;;;;;;5048212;28;20296;-80
2023/04/05 11:28:24;;;;;;;8.93;7.43;;;13.80;86.50;;;;;;5041405;28;20682;-81
2023/04/05 11:30:55;;;;;;;9.53;6.43;;;13.80;85.80;;;;;;5048470;28;20313;-80
2023/04/05 11:33:35;;;;;;;9.90;6.57;;;13.90;85.80;;;;;;5043894;28;20241;-79
2023/04/05 11:36:02;;;;;;;11.67;7.17;;;13.70;86.70;;;;;;5042483;28;20609;-80
2023/04/05 11:38:29;;;;;;;11.10;5.90;;;13.60;87.30;;;;;;5049429;28;20218;-80
2023/04/05 11:41:20;;;;;;;8.73;6.47;;;13.70;88.00;;;;;;5047499;28;20675;-81
2023/04/05 11:43:47;;;;;;;7.77;6.10;;;13.80;87.90;;;;;;5051468;28;20228;-79
2023/04/05 11:46:14;;;;;;;9.70;6.43;;;13.90;87.40;;;;;;5048947;28;20641;-80
2023/04/05 11:48:41;;;;;;;8.80;6.20;;;14.00;87.70;;;;;;5051399;28;20213;-80
2023/04/05 11:51:09;;;;;;;7.57;6.13;;;14.20;86.80;;;;;;5044177;28;20226;-80
2023/04/05 11:53:37;;;;;;;7.43;6.27;;;14.20;86.50;;;;;;5044531;28;20213;-80
2023/04/05 11:56:11;;;;;;;7.37;5.43;;;14.30;86.20;;;;;;5034124;28;20206;-81
2023/04/05 11:58:38;;;;;;;11.43;6.03;;;14.40;84.90;;;;;;5048900;28;20235;-81
2023/04/05 12:01:06;;;;;;;7.37;5.90;;;14.50;83.70;;;;;;5042588;28;20201;-81
2023/04/05 12:03:36;;;;;;;8.77;6.23;;;14.60;82.30;;;;;;5039023;28;20271;-80
2023/04/05 12:06:05;;;;;;;8.33;6.33;;;14.70;81.30;;;;;;5052630;28;20646;-81
2023/04/05 12:08:52;;;;;;;10.13;6.50;;;14.80;81.60;;;;;;5032052;28;20627;-81
2023/04/05 12:11:30;;;;;;;9.37;6.43;;;14.90;82.50;;;;;;5048751;28;20220;-81
2023/04/05 12:13:59;;;;;;;10.43;5.97;;;14.60;83.30;;;;;;5032561;28;20280;-79
2023/04/05 12:16:28;;;;;;;11.13;7.10;;;14.50;85.20;;;;;;5034693;28;20212;-81
2023/04/05 12:18:59;;;;;;;10.47;6.53;;;14.50;84.50;;;;;;5033141;28;20229;-80
2023/04/05 12:21:27;;;;;;;9.37;5.50;;;14.50;83.50;;;;;;5035962;28;20206;-81
2023/04/05 12:23:54;;;;;;;7.20;6.30;;;14.70;82.70;;;;;;5037085;28;20980;-79
2023/04/05 12:26:21;;;;;;;8.77;6.73;;;14.60;82.80;;;;;;5037833;28;20732;-80
2023/04/05 12:28:56;;;;;;;10.17;6.73;;;14.50;82.00;;;;;;5051135;28;20292;-80
2023/04/05 12:31:40;;;;;;;9.80;6.57;;;14.40;83.50;;;;;;5029843;28;20205;-80
2023/04/05 12:34:08;;;;;;;8.77;6.80;;;14.50;83.90;;;;;;5053948;28;20304;-80
2023/04/05 12:36:37;;;;;;;9.27;6.03;;;14.60;82.90;;;;;;5045216;28;20677;-80
2023/04/05 12:39:09;;;;;;;8.20;5.80;;;14.80;81.60;;;;;;5050861;28;20197;-80
2023/04/05 12:41:36;;;;;;;8.37;6.10;;;14.90;81.20;;;;;;5048616;28;20231;-80
2023/04/05 12:44:26;;;;;;;9.13;6.47;;;15.10;81.10;;;;;;5052329;28;20229;-80
2023/04/05 12:47:00;;;;;;;9.17;5.83;;;15.20;82.80;;;;;;5043771;28;20654;-81
2023/04/05 12:49:28;;;;;;;9.83;6.00;;;15.10;80.10;;;;;;5050962;28;20217;-81
2023/04/05 12:52:01;;;;;;;9.97;6.07;;;15.00;78.40;;;;;;5057226;28;20631;-81
2023/04/05 12:54:31;;;;;;;10.07;6.13;;;15.00;77.70;;;;;;5046156;28;20217;-79